Time;durP1;ratioP1;P1;durP2;ratioP2;P2;SDS_P1;SDS_P2;PMS_P1;PMS_P2;Temp;Humidity;BMP_temperature;BMP_pressure;BME280_temperature;BME280_humidity;BME280_pressure;Samples;Min_cycle;Max_cycle;Signal;HPM_P1;HPM_P2
2023/01/20 00:01:25;;;;;;;16.37;12.37;;;2.30;99.90;;;;;;5024259;28;20290;-65
2023/01/20 00:03:53;;;;;;;16.30;12.23;;;2.30;99.90;;;;;;5026481;28;20195;-66
2023/01/20 00:06:20;;;;;;;20.23;14.30;;;2.30;99.90;;;;;;5022961;28;20217;-64
2023/01/20 00:08:50;;;;;;;24.53;16.27;;;2.30;99.90;;;;;;5024562;28;20206;-67
2023/01/20 00:11:15;;;;;;;22.40;13.27;;;2.40;99.90;;;;;;5024734;28;20703;-67
2023/01/20 00:13:41;;;;;;;21.20;12.33;;;2.40;99.90;;;;;;5024500;28;20196;-68
2023/01/20 00:16:09;;;;;;;15.23;12.27;;;2.30;99.90;;;;;;5024736;28;20840;-69
2023/01/20 00:18:35;;;;;;;23.13;12.20;;;2.20;99.90;;;;;;5023339;28;20211;-66
2023/01/20 00:21:06;;;;;;;18.00;12.07;;;2.20;99.90;;;;;;5022562;28;20209;-69
2023/01/20 00:23:32;;;;;;;20.70;11.97;;;2.10;99.90;;;;;;5023587;28;20207;-65
2023/01/20 00:25:57;;;;;;;19.03;13.07;;;2.10;99.90;;;;;;5023633;28;20212;-65
2023/01/20 00:28:23;;;;;;;23.37;11.70;;;2.10;99.90;;;;;;5025908;28;20552;-64
2023/01/20 00:30:48;;;;;;;19.33;11.70;;;2.10;99.90;;;;;;5021169;28;20218;-65
2023/01/20 00:33:13;;;;;;;17.40;10.53;;;2.10;99.90;;;;;;5024511;28;20481;-66
2023/01/20 00:35:39;;;;;;;16.10;12.20;;;2.10;99.90;;;;;;5023961;28;20216;-67
2023/01/20 00:38:04;;;;;;;18.10;12.30;;;2.10;99.90;;;;;;5024711;28;20193;-66
2023/01/20 00:40:30;;;;;;;20.40;12.60;;;2.10;99.90;;;;;;5022637;28;20209;-69
2023/01/20 00:42:55;;;;;;;15.37;11.03;;;2.10;99.90;;;;;;5019094;28;20209;-65
2023/01/20 00:45:21;;;;;;;19.07;11.23;;;2.00;99.90;;;;;;5020990;28;20213;-67
2023/01/20 00:47:46;;;;;;;16.33;11.97;;;2.00;99.90;;;;;;5021048;28;20215;-68
2023/01/20 00:50:12;;;;;;;18.53;11.03;;;2.10;99.90;;;;;;5020000;28;20300;-67
2023/01/20 00:52:37;;;;;;;19.37;12.53;;;2.10;99.90;;;;;;5019609;28;20692;-67
2023/01/20 00:55:03;;;;;;;22.53;12.80;;;2.10;99.90;;;;;;5033139;28;20262;-66
2023/01/20 00:57:28;;;;;;;21.80;13.23;;;2.20;99.90;;;;;;5035594;28;20264;-66
2023/01/20 00:59:54;;;;;;;20.17;11.90;;;2.20;99.90;;;;;;5035970;28;20205;-66
2023/01/20 01:02:19;;;;;;;19.70;11.07;;;2.20;99.90;;;;;;5035280;28;20188;-68
2023/01/20 01:04:49;;;;;;;21.20;11.73;;;2.30;99.90;;;;;;5031103;28;20198;-65
2023/01/20 01:07:15;;;;;;;17.77;11.60;;;2.40;99.90;;;;;;5027864;28;20267;-60
2023/01/20 01:09:40;;;;;;;23.93;12.73;;;2.30;99.90;;;;;;5017773;28;20604;-61
2023/01/20 01:12:06;;;;;;;23.30;12.83;;;2.20;99.90;;;;;;5032024;28;20202;-62
2023/01/20 01:14:31;;;;;;;23.83;12.20;;;2.30;99.90;;;;;;5032544;28;20834;-60
2023/01/20 01:16:57;;;;;;;22.70;13.27;;;2.30;99.90;;;;;;5030630;28;20272;-60
2023/01/20 01:19:22;;;;;;;18.33;11.07;;;2.30;99.90;;;;;;5035387;28;20195;-60
2023/01/20 01:21:48;;;;;;;16.47;10.67;;;2.10;99.90;;;;;;5033444;28;20205;-58
2023/01/20 01:24:13;;;;;;;14.40;10.53;;;1.90;99.90;;;;;;5020898;28;20201;-61
2023/01/20 01:26:39;;;;;;;38.10;23.03;;;1.80;99.90;;;;;;5026773;28;20499;-60
2023/01/20 01:29:04;;;;;;;17.33;12.60;;;1.70;99.90;;;;;;5035807;28;20197;-60
2023/01/20 01:31:30;;;;;;;20.07;11.50;;;1.80;99.90;;;;;;5035877;28;20241;-59
2023/01/20 01:33:55;;;;;;;19.63;10.73;;;1.80;99.90;;;;;;5035669;28;20194;-59
2023/01/20 01:36:20;;;;;;;18.97;11.53;;;1.70;99.90;;;;;;5033564;28;20218;-60
2023/01/20 01:38:49;;;;;;;52.30;29.23;;;1.70;99.90;;;;;;5035681;28;20292;-60
2023/01/20 01:41:16;;;;;;;18.30;11.27;;;1.80;99.90;;;;;;5035401;28;20494;-60
2023/01/20 01:44:05;;;;;;;17.63;11.07;;;1.80;99.90;;;;;;5034618;28;20198;-61
2023/01/20 01:46:31;;;;;;;31.57;18.57;;;1.70;99.90;;;;;;5035302;28;20206;-61
2023/01/20 01:49:19;;;;;;;17.03;11.93;;;1.70;99.90;;;;;;5035178;28;20685;-60
2023/01/20 01:51:52;;;;;;;16.30;10.70;;;1.80;99.90;;;;;;5030173;28;20235;-60
2023/01/20 01:54:21;;;;;;;20.23;11.40;;;1.70;99.90;;;;;;5028422;28;20799;-61
2023/01/20 01:56:48;;;;;;;24.17;13.40;;;1.60;99.90;;;;;;5028330;28;20276;-60
2023/01/20 01:59:14;;;;;;;14.33;11.33;;;1.50;99.90;;;;;;5028857;28;20205;-60
2023/01/20 02:01:42;;;;;;;18.73;10.40;;;1.40;99.90;;;;;;5028537;28;20209;-59
2023/01/20 02:04:13;;;;;;;17.07;11.67;;;1.40;99.90;;;;;;5027212;28;20216;-61
2023/01/20 02:06:45;;;;;;;19.50;10.67;;;1.40;99.90;;;;;;5028205;28;20300;-58
2023/01/20 02:09:11;;;;;;;14.83;10.60;;;1.30;99.90;;;;;;5038386;28;20206;-60
2023/01/20 02:11:44;;;;;;;16.60;11.97;;;1.30;99.90;;;;;;5039075;28;20201;-60
2023/01/20 02:14:09;;;;;;;20.83;11.20;;;1.30;99.90;;;;;;5025210;28;20523;-60
2023/01/20 02:16:54;;;;;;;20.63;11.00;;;1.30;99.90;;;;;;5038777;28;20252;-59
2023/01/20 02:20:02;;;;;;;55.50;37.30;;;1.40;99.90;;;;;;5036846;28;20287;-60
2023/01/20 02:22:54;;;;;;;23.60;14.43;;;1.50;99.90;;;;;;5038514;28;20225;-59
2023/01/20 02:25:45;;;;;;;18.17;11.83;;;1.80;99.90;;;;;;5038555;28;20198;-59
2023/01/20 02:28:41;;;;;;;20.17;11.73;;;1.90;99.90;;;;;;5026425;28;20242;-60
2023/01/20 02:31:31;;;;;;;21.53;12.77;;;2.00;99.90;;;;;;5038591;28;20238;-60
2023/01/20 02:34:01;;;;;;;19.27;11.73;;;2.00;99.90;;;;;;5038361;28;20214;-58
2023/01/20 02:36:32;;;;;;;39.43;22.80;;;1.90;99.90;;;;;;5038034;28;21220;-63
2023/01/20 02:39:14;;;;;;;23.83;14.70;;;2.00;99.90;;;;;;5033538;28;20320;-59
2023/01/20 02:41:54;;;;;;;19.70;13.37;;;2.20;99.90;;;;;;5037969;28;20284;-59
2023/01/20 02:44:32;;;;;;;17.00;12.00;;;2.30;99.90;;;;;;5024505;28;20198;-60
2023/01/20 02:47:11;;;;;;;19.03;11.47;;;2.20;99.90;;;;;;5037916;28;20212;-60
2023/01/20 02:50:03;;;;;;;19.43;11.37;;;2.30;99.90;;;;;;5038277;28;20227;-60
2023/01/20 02:52:33;;;;;;;20.63;13.43;;;2.20;99.90;;;;;;5037727;28;20419;-62
2023/01/20 02:55:03;;;;;;;16.93;11.20;;;2.20;99.90;;;;;;5037079;28;20209;-61
2023/01/20 02:57:35;;;;;;;19.23;12.60;;;2.20;99.90;;;;;;5037778;28;20211;-60
2023/01/20 03:00:08;;;;;;;18.73;11.80;;;2.20;99.90;;;;;;5031137;28;20202;-61
2023/01/20 03:02:36;;;;;;;22.63;14.33;;;2.10;99.90;;;;;;5033786;28;20211;-60
2023/01/20 03:05:25;;;;;;;16.73;12.47;;;2.20;99.90;;;;;;5037129;28;20214;-61
2023/01/20 03:07:51;;;;;;;20.33;11.60;;;2.10;99.90;;;;;;5037316;28;20610;-61
2023/01/20 03:10:20;;;;;;;15.70;12.10;;;2.00;99.90;;;;;;5037653;28;20199;-60
2023/01/20 03:12:57;;;;;;;18.10;12.47;;;1.90;99.90;;;;;;5036233;28;20207;-61
2023/01/20 03:15:32;;;;;;;23.73;14.13;;;1.80;99.90;;;;;;5035836;28;20222;-58
2023/01/20 03:17:57;;;;;;;17.67;12.63;;;1.80;99.90;;;;;;5026027;28;20234;-59
2023/01/20 03:20:23;;;;;;;20.37;12.83;;;1.80;99.90;;;;;;5022575;28;20387;-59
2023/01/20 03:22:49;;;;;;;22.80;14.27;;;1.80;99.90;;;;;;5027193;28;20212;-60
2023/01/20 03:25:16;;;;;;;20.40;14.03;;;1.80;99.90;;;;;;5027297;28;20289;-60
2023/01/20 03:27:42;;;;;;;17.87;12.13;;;1.80;99.90;;;;;;5026134;28;20323;-59
2023/01/20 03:30:15;;;;;;;19.33;13.20;;;1.70;99.90;;;;;;5026764;28;20669;-58
2023/01/20 03:32:45;;;;;;;18.30;13.73;;;1.70;99.90;;;;;;5019906;28;20685;-58
2023/01/20 03:35:12;;;;;;;21.00;13.73;;;1.70;99.90;;;;;;5028712;28;20218;-60
2023/01/20 03:37:38;;;;;;;27.40;17.43;;;1.70;99.90;;;;;;5027100;28;20290;-60
2023/01/20 03:40:04;;;;;;;28.00;15.90;;;1.70;99.90;;;;;;5027569;28;20216;-58
2023/01/20 03:42:38;;;;;;;22.10;15.80;;;1.90;99.90;;;;;;5025032;28;20261;-59
2023/01/20 03:45:16;;;;;;;21.47;13.87;;;1.90;99.90;;;;;;5025771;28;20213;-59
2023/01/20 03:48:05;;;;;;;16.37;13.57;;;1.80;99.90;;;;;;5025812;28;20209;-62
2023/01/20 03:50:56;;;;;;;25.30;14.30;;;1.70;99.90;;;;;;5033558;28;20213;-59
2023/01/20 03:53:46;;;;;;;21.77;15.60;;;1.60;99.90;;;;;;5034433;28;20214;-59
2023/01/20 03:56:17;;;;;;;22.27;15.67;;;1.50;99.90;;;;;;5031463;28;20295;-58
2023/01/20 03:58:47;;;;;;;29.93;18.57;;;1.40;99.90;;;;;;5036075;28;20205;-59
2023/01/20 04:01:13;;;;;;;29.40;19.60;;;1.30;99.90;;;;;;5024123;28;20202;-58
2023/01/20 04:03:43;;;;;;;31.97;19.93;;;1.30;99.90;;;;;;5030873;28;20855;-59
2023/01/20 04:06:11;;;;;;;25.63;18.77;;;1.40;99.90;;;;;;5036761;28;20202;-61
2023/01/20 04:08:44;;;;;;;27.90;19.37;;;1.60;99.90;;;;;;5034835;28;20220;-59
2023/01/20 04:11:10;;;;;;;28.83;17.57;;;1.80;99.90;;;;;;5036262;28;20740;-58
2023/01/20 04:13:36;;;;;;;29.27;19.03;;;1.70;99.90;;;;;;5036486;28;20217;-60
2023/01/20 04:16:04;;;;;;;29.50;18.13;;;1.70;99.90;;;;;;5036074;28;20589;-59
2023/01/20 04:18:29;;;;;;;29.23;19.33;;;1.60;99.90;;;;;;5030491;28;20214;-59
2023/01/20 04:21:02;;;;;;;22.77;15.57;;;1.90;99.90;;;;;;5031241;28;20214;-59
2023/01/20 04:23:44;;;;;;;26.70;18.77;;;1.90;99.90;;;;;;5034670;28;20968;-58
2023/01/20 04:26:10;;;;;;;27.93;16.70;;;2.10;99.90;;;;;;5035338;28;20203;-60
2023/01/20 04:28:35;;;;;;;33.03;18.90;;;2.10;99.90;;;;;;5035758;28;20264;-60
2023/01/20 04:31:01;;;;;;;24.93;17.10;;;2.00;99.90;;;;;;5036168;28;20206;-59
2023/01/20 04:33:26;;;;;;;34.37;17.63;;;1.80;99.90;;;;;;5036321;28;20237;-58
2023/01/20 04:35:52;;;;;;;28.90;17.73;;;1.60;99.90;;;;;;5033994;28;20510;-60
2023/01/20 04:38:17;;;;;;;42.70;18.83;;;1.50;99.90;;;;;;5035982;28;20209;-59
2023/01/20 04:40:43;;;;;;;23.80;17.13;;;1.50;99.90;;;;;;5035790;28;20203;-62
2023/01/20 04:43:09;;;;;;;24.83;16.83;;;1.40;99.90;;;;;;5036429;28;20842;-59
2023/01/20 04:45:35;;;;;;;24.67;15.30;;;1.40;99.90;;;;;;5035673;28;20213;-60
2023/01/20 04:48:03;;;;;;;26.83;16.50;;;1.40;99.90;;;;;;5029212;28;20345;-59
2023/01/20 04:50:29;;;;;;;28.10;17.83;;;1.40;99.90;;;;;;5035085;28;20707;-59
2023/01/20 04:52:54;;;;;;;33.43;19.17;;;1.20;99.90;;;;;;5036000;28;20204;-59
2023/01/20 04:55:20;;;;;;;25.80;17.97;;;1.10;99.90;;;;;;5035665;28;20220;-60
2023/01/20 04:57:46;;;;;;;29.57;18.47;;;1.00;99.90;;;;;;5030716;28;20558;-59
2023/01/20 05:00:17;;;;;;;32.07;20.70;;;1.00;99.90;;;;;;5034687;28;20300;-59
2023/01/20 05:02:43;;;;;;;33.53;19.80;;;0.90;99.90;;;;;;5035833;28;20693;-60
2023/01/20 05:05:09;;;;;;;29.20;18.50;;;0.90;99.90;;;;;;5035765;28;20942;-59
2023/01/20 05:07:34;;;;;;;30.80;18.77;;;0.90;99.90;;;;;;5036007;28;20203;-60
2023/01/20 05:10:00;;;;;;;34.07;20.57;;;1.10;99.90;;;;;;5034655;28;20287;-60
2023/01/20 05:12:25;;;;;;;32.73;20.27;;;1.10;99.90;;;;;;5029192;28;20202;-60
2023/01/20 05:14:51;;;;;;;33.57;20.67;;;1.20;99.90;;;;;;5035414;28;20826;-61
2023/01/20 05:17:16;;;;;;;34.13;19.70;;;1.30;99.90;;;;;;5034055;28;20239;-60
2023/01/20 05:19:42;;;;;;;30.63;19.13;;;1.30;99.90;;;;;;5030019;28;20213;-60
2023/01/20 05:22:08;;;;;;;30.47;19.87;;;1.20;99.90;;;;;;5030118;28;20531;-60
2023/01/20 05:24:33;;;;;;;35.20;20.87;;;1.10;99.90;;;;;;5032821;28;20640;-60
2023/01/20 05:27:00;;;;;;;30.83;19.27;;;1.20;99.90;;;;;;5036323;28;20216;-59
2023/01/20 05:29:26;;;;;;;30.43;18.17;;;1.30;99.90;;;;;;5039270;28;20211;-59
2023/01/20 05:31:51;;;;;;;34.13;19.83;;;1.40;99.90;;;;;;5036526;28;20667;-60
2023/01/20 05:34:17;;;;;;;33.70;19.70;;;1.60;99.90;;;;;;5031274;28;20209;-58
2023/01/20 05:36:42;;;;;;;33.70;19.33;;;1.40;99.90;;;;;;5025622;28;20584;-59
2023/01/20 05:39:08;;;;;;;30.67;21.10;;;1.30;99.90;;;;;;5027074;28;20232;-59
2023/01/20 05:41:33;;;;;;;32.93;20.33;;;1.20;99.90;;;;;;5029702;28;20213;-58
2023/01/20 05:43:59;;;;;;;38.33;22.10;;;1.20;99.90;;;;;;5032191;28;20201;-59
2023/01/20 05:46:24;;;;;;;34.90;20.17;;;1.20;99.90;;;;;;5027265;28;20667;-60
2023/01/20 05:48:50;;;;;;;29.67;20.73;;;1.10;99.90;;;;;;5029305;28;20700;-58
2023/01/20 05:51:15;;;;;;;31.73;19.90;;;1.00;99.90;;;;;;5029298;28;20205;-60
2023/01/20 05:53:41;;;;;;;35.17;19.40;;;1.10;99.90;;;;;;5027009;28;20211;-58
2023/01/20 05:56:06;;;;;;;31.43;19.50;;;1.00;99.90;;;;;;5028262;28;20563;-60
2023/01/20 05:58:32;;;;;;;36.50;19.87;;;1.00;99.90;;;;;;5028643;28;20633;-58
2023/01/20 06:01:10;;;;;;;31.73;18.27;;;0.90;99.90;;;;;;5028412;28;20201;-59
2023/01/20 06:03:36;;;;;;;29.50;18.57;;;0.80;99.90;;;;;;5030427;28;20693;-59
2023/01/20 06:06:04;;;;;;;37.67;20.87;;;0.80;99.90;;;;;;5028177;28;20266;-58
2023/01/20 06:08:29;;;;;;;31.40;20.10;;;1.10;99.90;;;;;;5026413;28;20208;-59
2023/01/20 06:10:55;;;;;;;31.37;19.13;;;1.20;99.90;;;;;;5027439;28;20209;-59
2023/01/20 06:13:20;;;;;;;27.60;18.43;;;1.10;99.90;;;;;;5029131;28;20619;-57
2023/01/20 06:15:53;;;;;;;26.50;18.83;;;0.90;99.90;;;;;;5026612;28;20625;-59
2023/01/20 06:18:20;;;;;;;29.17;18.17;;;0.80;99.90;;;;;;5028468;28;20211;-59
2023/01/20 06:20:46;;;;;;;27.57;18.73;;;0.70;99.90;;;;;;5028137;28;20201;-58
2023/01/20 06:23:12;;;;;;;27.83;17.37;;;0.70;99.90;;;;;;5028368;28;20192;-59
2023/01/20 06:25:38;;;;;;;31.80;20.27;;;0.80;99.90;;;;;;5029904;28;20207;-59
2023/01/20 06:28:04;;;;;;;34.60;20.10;;;0.80;99.90;;;;;;5023113;28;20653;-61
2023/01/20 06:30:29;;;;;;;40.43;22.13;;;0.70;99.90;;;;;;5028669;28;20202;-59
2023/01/20 06:32:56;;;;;;;37.33;19.83;;;0.70;99.90;;;;;;5028396;28;20213;-60
2023/01/20 06:35:22;;;;;;;30.20;19.33;;;0.70;99.90;;;;;;5028960;28;20266;-61
2023/01/20 06:37:48;;;;;;;31.73;19.87;;;0.70;99.90;;;;;;5025496;28;20204;-62
2023/01/20 06:40:14;;;;;;;31.50;20.07;;;0.70;99.90;;;;;;5028263;28;20197;-61
2023/01/20 06:42:39;;;;;;;33.67;20.23;;;0.70;99.90;;;;;;5028072;28;20725;-59
2023/01/20 06:45:06;;;;;;;36.23;21.47;;;0.60;99.90;;;;;;5028033;28;20622;-60
2023/01/20 06:47:31;;;;;;;37.07;21.30;;;0.70;99.90;;;;;;5027944;28;20698;-59
2023/01/20 06:49:57;;;;;;;33.97;22.47;;;0.90;99.90;;;;;;5031659;28;20198;-60
2023/01/20 06:52:22;;;;;;;35.03;18.73;;;1.20;99.90;;;;;;5032418;28;20199;-60
2023/01/20 06:55:03;;;;;;;38.80;20.87;;;1.20;99.90;;;;;;4994082;28;20216;-58
2023/01/20 06:57:28;;;;;;;34.27;19.83;;;0.90;99.90;;;;;;5028315;28;20213;-59
2023/01/20 06:59:54;;;;;;;40.27;21.07;;;0.70;99.90;;;;;;5025038;28;20205;-60
2023/01/20 07:02:19;;;;;;;28.73;19.80;;;0.60;99.90;;;;;;5034422;28;20254;-60
2023/01/20 07:04:45;;;;;;;32.37;20.13;;;0.50;99.90;;;;;;5026480;28;20200;-58
2023/01/20 07:07:11;;;;;;;38.63;21.43;;;0.60;99.90;;;;;;5027128;28;20589;-58
2023/01/20 07:09:37;;;;;;;33.40;21.53;;;0.60;99.90;;;;;;5027464;28;20553;-58
2023/01/20 07:12:02;;;;;;;33.17;20.17;;;0.60;99.90;;;;;;5026576;28;20262;-58
2023/01/20 07:14:28;;;;;;;33.00;20.87;;;0.40;99.90;;;;;;5028161;28;20298;-58
2023/01/20 07:16:54;;;;;;;37.33;22.37;;;0.40;99.90;;;;;;5028244;28;20234;-59
2023/01/20 07:19:19;;;;;;;38.97;22.07;;;0.40;99.90;;;;;;5027917;28;20211;-59
2023/01/20 07:21:45;;;;;;;37.60;23.37;;;0.50;99.90;;;;;;5028176;28;20292;-58
2023/01/20 07:24:10;;;;;;;37.67;21.90;;;0.60;99.90;;;;;;5028253;28;20204;-59
2023/01/20 07:26:36;;;;;;;34.30;20.87;;;0.50;99.90;;;;;;5026916;28;20215;-59
2023/01/20 07:29:01;;;;;;;36.93;19.27;;;0.50;99.90;;;;;;5025942;28;20235;-59
2023/01/20 07:31:30;;;;;;;38.60;20.37;;;0.50;99.90;;;;;;5027217;28;20202;-59
2023/01/20 07:33:56;;;;;;;37.53;20.63;;;0.50;99.90;;;;;;5027197;28;20204;-61
2023/01/20 07:36:22;;;;;;;33.73;20.40;;;0.60;99.90;;;;;;5026864;28;20239;-59
2023/01/20 07:38:48;;;;;;;33.07;19.10;;;0.70;99.90;;;;;;5026033;28;20226;-59
2023/01/20 07:41:15;;;;;;;36.60;20.20;;;0.70;99.90;;;;;;5018156;28;20687;-60
2023/01/20 07:43:44;;;;;;;38.20;20.43;;;0.70;99.90;;;;;;5027868;28;20220;-60
2023/01/20 07:46:10;;;;;;;34.40;21.90;;;0.70;99.90;;;;;;5027339;28;20212;-59
2023/01/20 07:48:35;;;;;;;33.73;20.53;;;0.90;99.90;;;;;;5027437;28;20625;-60
2023/01/20 07:51:04;;;;;;;39.03;24.57;;;1.20;99.90;;;;;;5028898;28;20206;-60
2023/01/20 07:53:45;;;;;;;32.50;19.13;;;1.20;99.90;;;;;;5026536;28;20213;-60
2023/01/20 07:56:13;;;;;;;31.57;18.37;;;1.20;99.90;;;;;;5019757;28;20823;-59
2023/01/20 07:58:39;;;;;;;38.00;23.67;;;1.10;99.90;;;;;;5031284;28;20217;-60
2023/01/20 08:01:25;;;;;;;41.20;25.23;;;1.30;99.90;;;;;;5024126;28;20198;-60
2023/01/20 08:03:51;;;;;;;38.10;22.97;;;1.30;99.90;;;;;;5022047;28;20201;-61
2023/01/20 08:06:20;;;;;;;30.67;20.10;;;1.50;99.90;;;;;;5025391;28;20224;-65
2023/01/20 08:08:46;;;;;;;36.33;22.60;;;1.40;99.90;;;;;;5020470;28;20227;-58
2023/01/20 08:11:13;;;;;;;35.87;20.63;;;1.40;99.90;;;;;;5017761;28;20236;-61
2023/01/20 08:13:39;;;;;;;61.83;37.90;;;1.40;99.90;;;;;;5018536;28;20204;-60
2023/01/20 08:16:08;;;;;;;70.10;38.50;;;1.40;99.90;;;;;;5023162;28;20221;-60
2023/01/20 08:18:34;;;;;;;73.30;38.83;;;1.70;99.90;;;;;;5017282;28;20209;-60
2023/01/20 08:21:00;;;;;;;46.83;25.67;;;1.90;99.90;;;;;;5015539;28;20708;-59
2023/01/20 08:23:26;;;;;;;57.07;36.20;;;2.10;99.90;;;;;;5025984;28;20195;-58
2023/01/20 08:26:00;;;;;;;78.73;44.50;;;2.20;99.90;;;;;;5024123;28;20624;-59
2023/01/20 08:28:26;;;;;;;46.97;27.90;;;2.40;99.90;;;;;;5026212;28;20243;-60
2023/01/20 08:30:52;;;;;;;38.60;22.53;;;2.60;99.90;;;;;;5025868;28;20692;-59
2023/01/20 08:33:17;;;;;;;39.23;23.13;;;2.60;99.90;;;;;;5025957;28;20205;-60
2023/01/20 08:35:43;;;;;;;41.73;26.43;;;2.40;99.90;;;;;;5023862;28;20215;-60
2023/01/20 08:38:08;;;;;;;38.10;22.20;;;2.50;99.90;;;;;;5026458;28;20305;-61
2023/01/20 08:40:34;;;;;;;50.70;31.90;;;2.50;99.90;;;;;;5026643;28;20653;-59
2023/01/20 08:43:00;;;;;;;33.37;21.87;;;2.40;99.90;;;;;;5026049;28;20724;-60
2023/01/20 08:45:25;;;;;;;41.23;24.40;;;2.40;99.90;;;;;;5032077;28;20700;-69
2023/01/20 08:47:51;;;;;;;37.63;23.10;;;2.50;99.90;;;;;;5023895;28;20225;-64
2023/01/20 08:50:17;;;;;;;47.60;26.43;;;2.50;99.90;;;;;;5025204;28;20243;-66
2023/01/20 08:52:42;;;;;;;50.40;28.60;;;2.50;99.90;;;;;;5025064;28;20210;-73
2023/01/20 08:55:09;;;;;;;38.63;24.27;;;2.60;99.90;;;;;;5025298;28;20197;-66
2023/01/20 08:57:35;;;;;;;38.27;23.53;;;2.60;99.90;;;;;;5025163;28;20798;-66
2023/01/20 09:00:03;;;;;;;35.27;19.93;;;2.70;99.90;;;;;;5024506;28;20201;-66
2023/01/20 09:02:28;;;;;;;32.00;20.53;;;2.60;99.90;;;;;;5018434;28;20198;-67
2023/01/20 09:04:53;;;;;;;42.17;23.80;;;2.60;99.90;;;;;;5028859;28;20560;-67
2023/01/20 09:07:19;;;;;;;34.47;20.53;;;2.50;99.90;;;;;;5034971;28;20257;-67
2023/01/20 09:09:45;;;;;;;36.43;21.13;;;2.40;99.90;;;;;;5033835;28;20260;-68
2023/01/20 09:12:11;;;;;;;30.47;20.00;;;2.40;99.90;;;;;;5032629;28;20206;-71
2023/01/20 09:14:36;;;;;;;29.83;19.93;;;2.50;99.90;;;;;;5035111;28;20215;-71
2023/01/20 09:17:02;;;;;;;32.53;17.87;;;2.50;99.90;;;;;;5029852;28;20222;-72
2023/01/20 09:19:29;;;;;;;26.73;19.23;;;2.40;99.90;;;;;;5034646;28;20297;-70
2023/01/20 09:21:54;;;;;;;34.57;19.77;;;2.50;99.90;;;;;;5034841;28;20234;-68
2023/01/20 09:24:20;;;;;;;31.00;18.77;;;2.60;99.90;;;;;;5035134;28;20217;-70
2023/01/20 09:26:47;;;;;;;30.27;19.00;;;2.60;99.90;;;;;;5023288;28;20268;-69
2023/01/20 09:29:15;;;;;;;31.90;20.07;;;2.60;99.90;;;;;;5019134;28;20210;-68
2023/01/20 09:31:52;;;;;;;28.63;19.07;;;2.60;99.90;;;;;;5020457;28;20756;-71
2023/01/20 09:34:23;;;;;;;29.77;19.00;;;2.60;99.90;;;;;;5020658;28;20203;-72
2023/01/20 09:36:50;;;;;;;30.80;20.07;;;2.60;99.90;;;;;;5019730;28;20215;-73
2023/01/20 09:45:33;;;;;;;31.70;18.27;;;2.70;99.90;;;;;;5017659;28;20252;-74
2023/01/20 09:48:12;;;;;;;26.87;18.13;;;2.70;99.90;;;;;;5034830;28;20218;-72
2023/01/20 09:53:51;;;;;;;26.27;17.97;;;2.80;99.90;;;;;;5032162;28;20402;-72
2023/01/20 09:56:20;;;;;;;27.70;18.80;;;2.80;99.90;;;;;;5028911;28;20688;-64
2023/01/20 09:59:08;;;;;;;31.27;20.30;;;2.70;99.90;;;;;;5029765;28;20208;-58
2023/01/20 10:01:55;;;;;;;31.90;19.27;;;3.00;99.90;;;;;;5033619;28;20210;-57
2023/01/20 10:04:28;;;;;;;35.80;21.17;;;3.20;99.90;;;;;;5027239;28;20293;-58
2023/01/20 10:07:32;;;;;;;33.33;19.37;;;3.40;99.90;;;;;;5020873;28;20221;-56
2023/01/20 10:10:09;;;;;;;33.00;20.50;;;3.50;99.90;;;;;;4977282;28;20865;-56
2023/01/20 10:12:44;;;;;;;34.63;23.30;;;3.60;99.90;;;;;;5013475;28;20263;-56
2023/01/20 10:15:23;;;;;;;27.93;19.93;;;3.70;99.90;;;;;;5022143;28;20562;-56
2023/01/20 10:17:58;;;;;;;31.73;21.30;;;3.70;99.90;;;;;;5023449;28;20226;-56
2023/01/20 10:20:36;;;;;;;28.40;19.47;;;3.70;99.90;;;;;;5023932;28;20200;-57
2023/01/20 10:23:09;;;;;;;33.97;21.10;;;3.70;99.90;;;;;;5019716;28;20278;-56
2023/01/20 10:25:43;;;;;;;32.60;20.30;;;3.80;99.90;;;;;;5022705;28;20199;-58
2023/01/20 10:28:12;;;;;;;29.37;18.97;;;3.90;99.90;;;;;;5030554;28;20215;-58
2023/01/20 10:30:38;;;;;;;33.73;20.77;;;3.90;99.90;;;;;;5023536;28;20214;-56
2023/01/20 10:33:19;;;;;;;28.57;20.00;;;3.90;99.90;;;;;;5022200;28;20201;-58
2023/01/20 10:35:52;;;;;;;28.40;18.80;;;3.90;99.90;;;;;;5026410;28;20713;-58
2023/01/20 10:38:37;;;;;;;36.53;20.77;;;3.90;99.90;;;;;;5027986;28;20199;-57
2023/01/20 10:41:28;;;;;;;33.50;19.53;;;3.90;99.90;;;;;;5021679;28;20539;-57
2023/01/20 10:43:56;;;;;;;29.53;20.67;;;3.90;99.90;;;;;;5023869;28;20684;-57
2023/01/20 10:46:44;;;;;;;33.30;21.50;;;4.00;99.90;;;;;;5027527;28;20562;-57
2023/01/20 10:49:18;;;;;;;30.60;21.93;;;4.10;99.90;;;;;;5023727;28;20289;-58
2023/01/20 10:51:58;;;;;;;29.30;19.90;;;4.10;99.90;;;;;;5027616;28;20228;-56
2023/01/20 10:54:45;;;;;;;31.80;21.63;;;4.10;99.90;;;;;;5021676;28;20206;-56
2023/01/20 10:57:14;;;;;;;30.17;19.60;;;4.10;99.90;;;;;;5025936;28;20781;-58
2023/01/20 10:59:44;;;;;;;39.10;21.73;;;4.20;99.90;;;;;;5022085;28;20720;-57
2023/01/20 11:02:34;;;;;;;34.47;22.90;;;4.30;99.90;;;;;;5020476;28;20218;-57
2023/01/20 11:05:22;;;;;;;34.27;24.13;;;4.40;99.90;;;;;;5014303;28;21056;-58
2023/01/20 11:07:49;;;;;;;33.00;21.17;;;4.40;99.90;;;;;;5019407;28;20702;-56
2023/01/20 11:10:18;;;;;;;31.10;21.47;;;4.40;99.90;;;;;;5025031;28;20672;-56
2023/01/20 11:12:47;;;;;;;42.13;23.57;;;4.40;99.90;;;;;;5028256;28;20199;-57
2023/01/20 11:15:19;;;;;;;37.57;22.87;;;4.40;99.90;;;;;;5009398;28;20209;-57
2023/01/20 11:17:45;;;;;;;39.43;24.10;;;4.40;99.90;;;;;;5025301;28;20231;-57
2023/01/20 11:20:19;;;;;;;40.03;24.57;;;4.40;99.90;;;;;;5023700;28;20269;-58
2023/01/20 11:22:47;;;;;;;35.90;22.13;;;4.50;99.90;;;;;;5011832;28;20256;-57
2023/01/20 11:25:26;;;;;;;33.63;21.70;;;4.50;99.90;;;;;;5021581;28;20670;-57
2023/01/20 11:27:52;;;;;;;34.43;22.57;;;4.60;99.90;;;;;;5022479;28;20210;-67
2023/01/20 11:30:31;;;;;;;30.33;21.77;;;4.70;99.90;;;;;;5014939;28;20218;-69
2023/01/20 11:33:21;;;;;;;30.50;20.27;;;4.80;99.90;;;;;;5017412;28;20302;-74
2023/01/20 11:36:17;;;;;;;30.87;19.80;;;4.70;99.90;;;;;;5015934;28;20249;-73
2023/01/20 11:38:45;;;;;;;31.53;20.33;;;4.70;99.90;;;;;;5019148;28;20229;-70
2023/01/20 11:41:19;;;;;;;25.70;18.87;;;4.60;99.90;;;;;;5027267;28;20202;-69
2023/01/20 11:43:46;;;;;;;29.07;20.13;;;4.50;99.90;;;;;;5021818;28;20199;-72
2023/01/20 11:46:22;;;;;;;26.83;19.33;;;4.40;99.90;;;;;;5018462;28;20295;-73
2023/01/20 11:48:48;;;;;;;27.13;19.30;;;4.40;99.90;;;;;;5021728;28;20652;-72
2023/01/20 11:51:24;;;;;;;23.53;16.87;;;4.30;99.90;;;;;;5030443;28;20544;-72
2023/01/20 11:53:50;;;;;;;29.10;19.53;;;4.40;99.90;;;;;;5023704;28;20885;-71
2023/01/20 11:56:25;;;;;;;28.33;18.50;;;4.40;99.90;;;;;;5020673;28;20219;-72
2023/01/20 11:59:00;;;;;;;30.60;20.53;;;4.30;99.90;;;;;;5020814;28;20221;-72
2023/01/20 12:01:48;;;;;;;28.90;18.50;;;4.30;99.90;;;;;;5022080;28;21018;-72
2023/01/20 12:04:26;;;;;;;31.13;20.73;;;4.20;99.90;;;;;;5020074;28;20256;-72
2023/01/20 12:06:58;;;;;;;34.67;20.97;;;4.20;99.90;;;;;;5017697;28;20757;-69
2023/01/20 12:09:33;;;;;;;30.93;19.93;;;4.30;99.90;;;;;;5011427;28;20210;-71
2023/01/20 12:12:05;;;;;;;29.67;19.60;;;4.20;99.90;;;;;;5024150;28;20210;-71
2023/01/20 12:14:40;;;;;;;24.80;17.47;;;4.20;99.90;;;;;;5022531;28;20222;-72
2023/01/20 12:17:17;;;;;;;26.00;17.77;;;4.10;99.90;;;;;;5020577;28;20223;-73
2023/01/20 12:20:00;;;;;;;29.73;17.90;;;4.10;99.90;;;;;;5032937;28;20202;-74
2023/01/20 12:22:39;;;;;;;28.50;18.70;;;4.00;99.90;;;;;;5033446;28;20218;-72
2023/01/20 12:25:24;;;;;;;30.87;20.60;;;4.00;99.90;;;;;;5024008;28;20206;-73
2023/01/20 12:28:17;;;;;;;27.80;19.30;;;4.00;99.90;;;;;;5016359;28;21038;-73
2023/01/20 12:30:52;;;;;;;27.80;18.80;;;3.90;99.90;;;;;;5018363;28;20218;-64
2023/01/20 12:33:24;;;;;;;24.00;17.20;;;3.90;99.90;;;;;;5016060;28;20676;-63
2023/01/20 12:36:08;;;;;;;25.03;16.10;;;4.00;99.90;;;;;;5019100;28;20228;-62
2023/01/20 12:38:47;;;;;;;30.23;20.17;;;4.10;99.90;;;;;;5021759;28;20683;-65
2023/01/20 12:41:26;;;;;;;29.00;18.97;;;4.10;99.90;;;;;;5022964;28;20669;-63
2023/01/20 12:44:00;;;;;;;23.37;17.10;;;4.20;99.90;;;;;;5025024;28;20233;-62
2023/01/20 12:46:43;;;;;;;29.67;18.70;;;4.20;99.90;;;;;;5024808;28;20214;-64
2023/01/20 12:49:51;;;;;;;26.57;17.70;;;4.20;99.90;;;;;;5024113;28;20230;-64
2023/01/20 12:52:43;;;;;;;23.63;15.43;;;4.20;99.90;;;;;;5022571;28;20218;-64
2023/01/20 12:55:41;;;;;;;28.50;17.17;;;4.20;99.90;;;;;;5022072;28;20675;-64
2023/01/20 12:58:41;;;;;;;24.17;18.80;;;4.30;99.90;;;;;;5015975;28;20230;-73
2023/01/20 13:01:30;;;;;;;28.83;18.53;;;4.30;99.90;;;;;;5017175;28;20612;-72
2023/01/20 13:04:18;;;;;;;21.93;16.90;;;4.30;99.90;;;;;;5023607;28;20287;-74